createdAt,value
2022-08-01T00:00:14.382Z,12.30
2022-08-01T00:01:16.809Z,12.30
2022-08-01T00:02:20.095Z,12.30
2022-08-01T00:03:29.265Z,12.40
2022-08-01T00:04:32.498Z,12.40
2022-08-01T00:05:34.954Z,12.30
2022-08-01T00:06:44.477Z,12.30
2022-08-01T00:07:53.299Z,12.20
2022-08-01T00:08:56.909Z,12.20
2022-08-01T00:10:00.238Z,12.20
2022-08-01T00:11:03.025Z,12.20
2022-08-01T00:12:08.288Z,12.20
2022-08-01T00:13:17.307Z,12.20
2022-08-01T00:14:20.664Z,12.20
2022-08-01T00:15:36.286Z,12.20
2022-08-01T00:16:38.835Z,12.20
2022-08-01T00:17:49.309Z,12.20
2022-08-01T00:18:52.357Z,12.20
2022-08-01T00:20:02.349Z,12.20
2022-08-01T00:21:04.837Z,12.20
2022-08-01T00:22:08.881Z,12.20
2022-08-01T00:23:11.356Z,12.20
2022-08-01T00:24:15.700Z,12.20
2022-08-01T00:25:34.462Z,12.20
2022-08-01T00:26:37.883Z,12.10
2022-08-01T00:27:41.593Z,12.20
2022-08-01T00:28:44.829Z,12.10
2022-08-01T00:30:11.765Z,12.10
2022-08-01T00:31:24.337Z,12.10
2022-08-01T00:32:26.684Z,12.10
2022-08-01T00:33:29.948Z,12.10
2022-08-01T00:34:33.305Z,12.10
2022-08-01T00:35:36.689Z,12.10
2022-08-01T00:36:46.362Z,12.10
2022-08-01T00:37:48.640Z,12.00
2022-08-01T00:38:51.851Z,12.00
2022-08-01T00:39:54.156Z,11.90
2022-08-01T00:40:57.405Z,11.90
2022-08-01T00:42:06.737Z,11.90
2022-08-01T00:43:11.980Z,11.80
2022-08-01T00:44:14.432Z,11.80
2022-08-01T00:45:17.804Z,11.90
2022-08-01T00:46:21.065Z,11.80
2022-08-01T00:47:30.313Z,11.80
2022-08-01T00:48:33.694Z,11.80
2022-08-01T00:49:36.914Z,11.80
2022-08-01T00:50:47.321Z,11.90
2022-08-01T00:51:49.757Z,11.80
2022-08-01T00:52:53.367Z,11.80
2022-08-01T00:54:03.311Z,11.80
2022-08-01T00:55:06.324Z,11.80
2022-08-01T00:56:09.747Z,11.80
2022-08-01T00:57:12.724Z,11.80
2022-08-01T00:58:26.351Z,11.80
2022-08-01T00:59:35.317Z,11.80
2022-08-01T01:00:52.743Z,11.80
2022-08-01T01:01:57.380Z,11.80
2022-08-01T01:02:59.875Z,11.80
2022-08-01T01:04:11.414Z,11.80
2022-08-01T01:05:20.317Z,11.80
2022-08-01T01:06:56.317Z,11.80
2022-08-01T01:08:03.233Z,11.80
2022-08-01T01:09:26.378Z,11.80
2022-08-01T01:10:38.910Z,11.70
2022-08-01T01:11:48.592Z,11.70
2022-08-01T01:12:57.186Z,11.70
2022-08-01T01:14:06.283Z,11.70
2022-08-01T01:15:22.308Z,11.70
2022-08-01T01:16:25.836Z,11.70
2022-08-01T01:17:50.490Z,11.70
2022-08-01T01:18:57.841Z,11.70
2022-08-01T01:20:03.702Z,11.70
2022-08-01T01:21:40.302Z,11.70
2022-08-01T01:23:04.686Z,11.70
2022-08-01T01:24:19.541Z,11.70
2022-08-01T01:25:41.734Z,11.70
2022-08-01T01:27:00.305Z,11.70
2022-08-01T01:28:10.988Z,11.70
2022-08-01T01:29:18.543Z,11.60
2022-08-01T01:30:29.396Z,11.70
2022-08-01T01:31:46.568Z,11.60
2022-08-01T01:32:59.316Z,11.60
2022-08-01T01:34:04.978Z,11.60
2022-08-01T01:35:13.113Z,11.60
2022-08-01T01:36:18.903Z,11.60
2022-08-01T01:37:33.307Z,11.60
2022-08-01T01:38:42.890Z,11.60
2022-08-01T01:39:54.410Z,11.60
2022-08-01T01:40:59.871Z,11.60
2022-08-01T01:42:04.591Z,11.60
2022-08-01T01:43:20.349Z,11.60
2022-08-01T01:44:25.085Z,11.60
2022-08-01T01:45:36.327Z,11.60
2022-08-01T01:46:39.872Z,11.60
2022-08-01T01:47:44.959Z,11.60
2022-08-01T01:48:56.405Z,11.60
2022-08-01T01:50:08.346Z,11.60
2022-08-01T01:51:11.429Z,11.60
2022-08-01T01:52:18.274Z,11.60
2022-08-01T01:53:30.318Z,11.50
2022-08-01T01:54:43.531Z,11.50
2022-08-01T01:55:56.333Z,11.50
2022-08-01T01:57:01.798Z,11.50
2022-08-01T01:58:12.359Z,11.40
2022-08-01T01:59:16.064Z,11.40
2022-08-01T02:00:31.891Z,11.40
2022-08-01T02:02:06.108Z,11.40
2022-08-01T02:03:09.628Z,11.40
2022-08-01T02:04:19.444Z,11.50
2022-08-01T02:05:23.705Z,11.40
2022-08-01T02:06:28.150Z,11.30
2022-08-01T02:07:48.565Z,11.30
2022-08-01T02:09:04.346Z,11.30
2022-08-01T02:10:15.345Z,11.30
2022-08-01T02:11:20.822Z,11.40
2022-08-01T02:12:24.513Z,11.30
2022-08-01T02:13:33.325Z,11.30
2022-08-01T02:14:37.235Z,11.20
2022-08-01T02:15:59.693Z,11.30
2022-08-01T02:17:05.012Z,11.20
2022-08-01T02:18:09.737Z,11.20
2022-08-01T02:19:12.765Z,11.20
2022-08-01T02:20:23.372Z,11.20
2022-08-01T02:21:29.612Z,11.20
2022-08-01T02:22:35.735Z,11.20
2022-08-01T02:23:40.141Z,11.20
2022-08-01T02:24:51.400Z,11.20
2022-08-01T02:26:10.816Z,11.20
2022-08-01T02:27:19.541Z,11.10
2022-08-01T02:28:29.146Z,11.20
2022-08-01T02:29:40.258Z,11.10
2022-08-01T02:30:55.352Z,11.20
2022-08-01T02:31:59.620Z,11.10
2022-08-01T02:33:06.305Z,11.10
2022-08-01T02:34:18.951Z,11.20
2022-08-01T02:35:24.770Z,11.10
2022-08-01T02:36:37.338Z,11.10
2022-08-01T02:37:42.951Z,11.10
2022-08-01T02:38:48.968Z,11.00
2022-08-01T02:39:55.246Z,11.00
2022-08-01T02:41:09.361Z,11.00
2022-08-01T02:42:15.343Z,11.00
2022-08-01T02:43:29.395Z,11.10
2022-08-01T02:44:38.977Z,11.00
2022-08-01T02:45:48.995Z,11.00
2022-08-01T02:46:55.250Z,11.00
2022-08-01T02:48:02.499Z,11.00
2022-08-01T02:49:15.408Z,10.90
2022-08-01T02:50:19.769Z,10.90
2022-08-01T02:51:25.253Z,11.00
2022-08-01T02:52:36.403Z,10.90
2022-08-01T02:53:44.564Z,10.90
2022-08-01T02:54:55.325Z,11.00
2022-08-01T02:56:00.061Z,11.00
2022-08-01T02:57:04.974Z,11.00
2022-08-01T02:58:18.353Z,11.00
2022-08-01T02:59:33.346Z,11.00
2022-08-01T03:00:37.141Z,11.00
2022-08-01T03:01:42.629Z,11.00
2022-08-01T03:02:49.410Z,11.00
2022-08-01T03:03:52.759Z,11.00
2022-08-01T03:05:03.357Z,11.00
2022-08-01T03:06:07.509Z,11.10
2022-08-01T03:07:34.323Z,11.00
2022-08-01T03:08:38.719Z,11.00
2022-08-01T03:09:53.375Z,11.00
2022-08-01T03:10:56.628Z,11.10
2022-08-01T03:12:03.226Z,11.10
2022-08-01T03:13:07.907Z,11.10
2022-08-01T03:14:20.404Z,11.10
2022-08-01T03:15:24.190Z,11.10
2022-08-01T03:16:29.809Z,11.20
2022-08-01T03:17:34.927Z,11.10
2022-08-01T03:18:39.004Z,11.20
2022-08-01T03:19:50.381Z,11.20
2022-08-01T03:20:57.963Z,11.20
2022-08-01T03:22:04.757Z,11.20
2022-08-01T03:23:10.800Z,11.20
2022-08-01T03:24:15.591Z,11.20
2022-08-01T03:25:26.356Z,11.20
2022-08-01T03:26:31.593Z,11.30
2022-08-01T03:27:44.399Z,11.30
2022-08-01T03:28:48.685Z,11.30
2022-08-01T03:29:53.687Z,11.40
2022-08-01T03:30:56.430Z,11.40
2022-08-01T03:32:01.016Z,11.50
2022-08-01T03:33:14.521Z,11.50
2022-08-01T03:34:18.608Z,11.50
2022-08-01T03:35:22.605Z,11.50
2022-08-01T03:36:29.615Z,11.60
2022-08-01T03:37:49.713Z,11.60
2022-08-01T03:39:12.330Z,11.70
2022-08-01T03:40:27.395Z,11.70
2022-08-01T03:41:35.979Z,11.80
2022-08-01T03:42:43.340Z,11.90
2022-08-01T03:43:54.238Z,11.90
2022-08-01T03:45:00.328Z,11.90
2022-08-01T03:46:16.421Z,12.00
2022-08-01T03:47:20.981Z,12.00
2022-08-01T03:48:32.031Z,12.10
2022-08-01T03:49:38.504Z,12.10
2022-08-01T03:50:44.810Z,12.20
2022-08-01T03:51:57.383Z,12.20
2022-08-01T03:53:02.857Z,12.20
2022-08-01T03:54:06.315Z,12.30
2022-08-01T03:55:12.323Z,12.30
2022-08-01T03:56:17.852Z,12.40
2022-08-01T03:57:36.313Z,12.40
2022-08-01T03:58:42.538Z,12.40
2022-08-01T03:59:46.201Z,12.50
2022-08-01T04:00:50.625Z,12.50
2022-08-01T04:01:53.598Z,12.60
2022-08-01T04:03:04.352Z,12.60
2022-08-01T04:04:14.378Z,12.60
2022-08-01T04:05:18.455Z,12.70
2022-08-01T04:06:21.611Z,12.80
2022-08-01T04:07:46.353Z,12.80
2022-08-01T04:09:03.379Z,12.80
2022-08-01T04:10:06.270Z,12.90
2022-08-01T04:11:11.217Z,13.00
2022-08-01T04:12:14.040Z,13.00
2022-08-01T04:13:24.401Z,13.00
2022-08-01T04:14:32.382Z,13.10
2022-08-01T04:15:35.769Z,12.80
2022-08-01T04:16:39.273Z,13.20
2022-08-01T04:17:42.472Z,13.30
2022-08-01T04:18:51.386Z,13.40
2022-08-01T04:19:55.974Z,13.40
2022-08-01T04:20:58.978Z,13.40
2022-08-01T04:22:04.217Z,13.40
2022-08-01T04:23:08.043Z,13.50
2022-08-01T04:24:22.376Z,13.50
2022-08-01T04:25:29.219Z,13.50
2022-08-01T04:26:34.175Z,13.60
2022-08-01T04:27:49.797Z,13.60
2022-08-01T04:29:03.368Z,13.60
2022-08-01T04:30:07.385Z,13.60
2022-08-01T04:31:20.365Z,13.70
2022-08-01T04:32:24.300Z,13.80
2022-08-01T04:33:30.961Z,13.80
2022-08-01T04:34:41.370Z,13.70
2022-08-01T04:36:03.808Z,13.80
2022-08-01T04:37:13.170Z,13.80
2022-08-01T04:38:22.052Z,13.80
2022-08-01T04:39:50.479Z,13.90
2022-08-01T04:41:09.174Z,13.90
2022-08-01T04:42:13.900Z,14.00
2022-08-01T04:43:16.379Z,14.00
2022-08-01T04:45:22.872Z,14.10
2022-08-01T04:46:32.454Z,14.00
2022-08-01T04:47:36.872Z,14.00
2022-08-01T04:48:41.665Z,14.00
2022-08-01T04:49:48.596Z,14.00
2022-08-01T04:50:52.966Z,14.00
2022-08-01T04:52:05.710Z,14.00
2022-08-01T04:53:15.851Z,14.00
2022-08-01T04:54:24.411Z,14.10
2022-08-01T04:55:27.748Z,14.10
2022-08-01T04:56:36.387Z,14.10
2022-08-01T04:57:43.214Z,14.10
2022-08-01T04:58:45.821Z,14.10
2022-08-01T04:59:57.527Z,14.20
2022-08-01T05:00:59.954Z,14.10
2022-08-01T05:02:03.400Z,14.20
2022-08-01T05:03:13.391Z,14.20
2022-08-01T05:04:15.682Z,14.20
2022-08-01T05:05:25.418Z,14.30
2022-08-01T05:06:29.059Z,14.20
2022-08-01T05:07:51.375Z,14.30
2022-08-01T05:08:53.647Z,14.30
2022-08-01T05:10:03.380Z,14.30
2022-08-01T05:11:08.935Z,14.40
2022-08-01T05:12:11.922Z,14.40
2022-08-01T05:13:15.108Z,14.50
2022-08-01T05:14:17.502Z,14.50
2022-08-01T05:15:27.381Z,14.40
2022-08-01T05:16:29.735Z,14.50
2022-08-01T05:17:32.933Z,14.50
2022-08-01T05:18:35.252Z,14.60
2022-08-01T05:19:39.759Z,14.70
2022-08-01T05:20:49.396Z,14.70
2022-08-01T05:21:53.956Z,14.80
2022-08-01T05:23:03.529Z,14.80
2022-08-01T05:24:06.514Z,14.90
2022-08-01T05:25:09.994Z,14.90
2022-08-01T05:26:21.406Z,14.90
2022-08-01T05:27:31.442Z,15.00
2022-08-01T05:28:33.755Z,15.10
2022-08-01T05:29:41.372Z,15.00
2022-08-01T05:30:47.738Z,15.00
2022-08-01T05:31:50.086Z,15.10
2022-08-01T05:33:00.418Z,15.10
2022-08-01T05:34:02.988Z,15.20
2022-08-01T05:35:07.575Z,15.20
2022-08-01T05:36:09.912Z,15.40
2022-08-01T05:37:14.441Z,15.30
2022-08-01T05:38:23.608Z,15.40
2022-08-01T05:39:27.360Z,15.60
2022-08-01T05:40:29.663Z,15.70
2022-08-01T05:41:33.231Z,15.70
2022-08-01T05:42:36.485Z,15.80
2022-08-01T05:43:45.465Z,15.90
2022-08-01T05:44:48.815Z,15.90
2022-08-01T05:45:51.090Z,16.00
2022-08-01T05:46:54.381Z,16.00
2022-08-01T05:47:56.615Z,16.20
2022-08-01T05:49:06.463Z,16.10
2022-08-01T05:50:10.941Z,16.20
2022-08-01T05:51:13.302Z,16.20
2022-08-01T05:52:17.776Z,16.40
2022-08-01T05:53:26.572Z,16.40
2022-08-01T05:54:29.993Z,16.50
2022-08-01T05:55:32.512Z,16.40
2022-08-01T05:56:35.939Z,16.40
2022-08-01T05:57:39.215Z,16.60
2022-08-01T05:58:50.532Z,16.60
2022-08-01T05:59:53.695Z,16.70
2022-08-01T06:01:02.363Z,16.70
2022-08-01T06:02:06.238Z,16.70
2022-08-01T06:03:08.756Z,16.80
2022-08-01T06:04:11.973Z,16.80
2022-08-01T06:05:20.400Z,16.90
2022-08-01T06:06:25.213Z,17.00
2022-08-01T06:07:49.362Z,16.90
2022-08-01T06:08:52.886Z,16.90
2022-08-01T06:09:55.191Z,17.00
2022-08-01T06:11:05.424Z,17.00
2022-08-01T06:12:08.312Z,17.10
2022-08-01T06:13:11.836Z,17.10
2022-08-01T06:14:15.045Z,17.10
2022-08-01T06:15:24.399Z,17.10
2022-08-01T06:16:27.673Z,17.30
2022-08-01T06:17:30.022Z,17.30
2022-08-01T06:18:33.267Z,17.30
2022-08-01T06:19:35.668Z,17.40
2022-08-01T06:20:45.440Z,17.40
2022-08-01T06:21:48.214Z,17.40
2022-08-01T06:22:52.879Z,17.40
2022-08-01T06:23:56.102Z,17.40
2022-08-01T06:24:58.461Z,17.40
2022-08-01T06:26:08.429Z,17.40
2022-08-01T06:27:21.733Z,17.40
2022-08-01T06:28:26.014Z,17.50
2022-08-01T06:29:29.289Z,17.50
2022-08-01T06:30:33.497Z,17.50
2022-08-01T06:31:36.782Z,17.60
2022-08-01T06:32:45.441Z,17.50
2022-08-01T06:33:48.700Z,17.60
2022-08-01T06:34:51.943Z,17.60
2022-08-01T06:35:54.469Z,17.70
2022-08-01T06:36:57.679Z,17.70
2022-08-01T06:38:08.439Z,17.70
2022-08-01T06:39:11.683Z,17.80
2022-08-01T06:40:17.182Z,17.80
2022-08-01T06:41:20.769Z,17.90
2022-08-01T06:42:29.452Z,18.00
2022-08-01T06:43:32.778Z,18.10
2022-08-01T06:44:35.044Z,18.00
2022-08-01T06:45:45.416Z,18.10
2022-08-01T06:46:48.666Z,18.10
2022-08-01T06:47:51.053Z,18.10
2022-08-01T06:49:00.515Z,18.10
2022-08-01T06:50:04.152Z,18.20
2022-08-01T06:51:09.480Z,18.20
2022-08-01T06:52:12.751Z,18.30
2022-08-01T06:53:23.454Z,18.40
2022-08-01T06:54:25.763Z,18.40
2022-08-01T06:55:29.293Z,18.40
2022-08-01T06:56:32.511Z,18.40
2022-08-01T06:57:34.860Z,18.50
2022-08-01T06:58:44.451Z,18.40
2022-08-01T06:59:54.167Z,18.50
2022-08-01T07:00:57.793Z,18.60
2022-08-01T07:02:01.976Z,18.60
2022-08-01T07:03:05.206Z,18.80
2022-08-01T07:04:14.490Z,18.80
2022-08-01T07:05:17.782Z,18.80
2022-08-01T07:06:21.029Z,18.80
2022-08-01T07:07:42.421Z,18.90
2022-08-01T07:08:46.953Z,18.80
2022-08-01T07:09:56.476Z,19.00
2022-08-01T07:11:00.405Z,19.00
2022-08-01T07:12:03.998Z,19.10
2022-08-01T07:13:06.453Z,19.00
2022-08-01T07:14:09.759Z,19.20
2022-08-01T07:15:20.487Z,19.10
2022-08-01T07:16:23.927Z,19.10
2022-08-01T07:17:26.221Z,19.20
2022-08-01T07:18:29.452Z,19.30
2022-08-01T07:19:31.994Z,19.20
2022-08-01T07:20:50.433Z,19.30
2022-08-01T07:21:56.302Z,19.30
2022-08-01T07:23:00.394Z,19.40
2022-08-01T07:24:09.247Z,19.50
2022-08-01T07:25:22.422Z,19.50
2022-08-01T07:26:25.638Z,19.40
2022-08-01T07:27:28.302Z,19.40
2022-08-01T07:28:31.764Z,19.50
2022-08-01T07:29:34.058Z,19.50
2022-08-01T07:30:44.451Z,19.40
2022-08-01T07:31:46.763Z,19.50
2022-08-01T07:32:50.283Z,19.60
2022-08-01T07:33:52.535Z,19.50
2022-08-01T07:34:55.774Z,19.60
2022-08-01T07:36:05.494Z,19.60
2022-08-01T07:37:12.109Z,19.60
2022-08-01T07:38:16.150Z,19.60
2022-08-01T07:39:21.205Z,19.50
2022-08-01T07:40:25.036Z,19.60
2022-08-01T07:42:02.470Z,19.70
2022-08-01T07:42:56.681Z,19.70
2022-08-01T07:44:04.412Z,19.70
2022-08-01T07:45:08.790Z,19.70
2022-08-01T07:46:11.121Z,19.80
2022-08-01T07:47:20.460Z,19.90
2022-08-01T07:48:25.001Z,19.80
2022-08-01T07:49:28.362Z,19.90
2022-08-01T07:50:38.452Z,20.00
2022-08-01T07:51:40.790Z,19.90
2022-08-01T07:52:44.053Z,20.10
2022-08-01T07:53:47.277Z,20.10
2022-08-01T07:54:52.329Z,20.10
2022-08-01T07:56:02.461Z,20.10
2022-08-01T07:57:11.517Z,20.30
2022-08-01T07:58:14.783Z,20.30
2022-08-01T07:59:24.053Z,20.30
2022-08-01T08:00:29.637Z,20.30
2022-08-01T08:01:32.008Z,20.40
2022-08-01T08:02:41.433Z,20.50
2022-08-01T08:03:51.435Z,20.60
2022-08-01T08:04:54.753Z,20.60
2022-08-01T08:06:25.406Z,20.60
2022-08-01T08:07:35.502Z,20.80
2022-08-01T08:08:51.504Z,20.90
2022-08-01T08:10:02.630Z,20.90
2022-08-01T08:11:05.835Z,20.90
2022-08-01T08:12:08.869Z,20.90
2022-08-01T08:13:12.322Z,20.90
2022-08-01T08:14:22.640Z,20.90
2022-08-01T08:15:37.345Z,21.00
2022-08-01T08:16:40.819Z,21.00
2022-08-01T08:17:44.141Z,21.00
2022-08-01T08:18:57.259Z,21.10
2022-08-01T08:20:09.020Z,21.10
2022-08-01T08:21:12.796Z,21.20
2022-08-01T08:22:16.075Z,21.30
2022-08-01T08:23:44.148Z,21.30
2022-08-01T08:24:47.504Z,21.40
2022-08-01T08:25:51.164Z,21.50
2022-08-01T08:26:56.236Z,21.60
2022-08-01T08:27:59.598Z,21.60
2022-08-01T08:29:08.490Z,21.60
2022-08-01T08:30:12.509Z,21.60
2022-08-01T08:31:25.393Z,21.70
2022-08-01T08:32:38.805Z,21.60
2022-08-01T08:33:41.164Z,21.70
2022-08-01T08:34:51.491Z,21.80
2022-08-01T08:35:55.245Z,21.90
2022-08-01T08:36:59.357Z,21.90
2022-08-01T08:38:08.484Z,22.00
2022-08-01T08:39:14.579Z,22.00
2022-08-01T08:40:23.481Z,22.00
2022-08-01T08:41:28.061Z,22.10
2022-08-01T08:42:49.500Z,22.10
2022-08-01T08:43:51.863Z,22.10
2022-08-01T08:44:56.302Z,22.10
2022-08-01T08:46:00.461Z,22.20
2022-08-01T08:47:06.342Z,22.20
2022-08-01T08:48:19.496Z,22.20
2022-08-01T08:49:35.939Z,22.30
2022-08-01T08:50:46.472Z,22.30
2022-08-01T08:51:52.241Z,22.20
2022-08-01T08:53:02.516Z,22.20
2022-08-01T08:54:14.776Z,22.30
2022-08-01T08:55:19.816Z,22.40
2022-08-01T08:56:24.350Z,22.40
2022-08-01T08:57:33.230Z,22.40
2022-08-01T08:58:45.529Z,22.50
2022-08-01T08:59:49.353Z,22.60
2022-08-01T09:00:51.902Z,22.60
2022-08-01T09:01:55.177Z,22.70
2022-08-01T09:02:58.399Z,22.70
2022-08-01T09:04:07.493Z,22.80
2022-08-01T09:05:14.004Z,22.80
2022-08-01T09:06:20.963Z,22.90
2022-08-01T09:07:32.500Z,22.90
2022-08-01T09:08:43.252Z,23.00
2022-08-01T09:09:49.232Z,23.10
2022-08-01T09:10:52.220Z,23.00
2022-08-01T09:12:04.559Z,23.20
2022-08-01T09:13:16.717Z,23.30
2022-08-01T09:14:25.066Z,23.30
2022-08-01T09:15:41.161Z,23.40
2022-08-01T09:16:48.802Z,23.30
2022-08-01T09:17:58.537Z,23.30
2022-08-01T09:19:39.751Z,23.20
2022-08-01T09:20:39.723Z,23.20
2022-08-01T09:21:57.437Z,23.20
2022-08-01T09:23:08.500Z,23.40
2022-08-01T09:24:26.019Z,23.40
2022-08-01T09:25:59.269Z,23.50
2022-08-01T09:27:13.597Z,23.60
2022-08-01T09:28:18.190Z,23.60
2022-08-01T09:29:36.191Z,23.60
2022-08-01T09:30:42.259Z,23.60
2022-08-01T09:31:54.518Z,23.80
2022-08-01T09:32:59.058Z,23.90
2022-08-01T09:34:04.894Z,24.10
2022-08-01T09:35:43.232Z,24.20
2022-08-01T09:36:54.317Z,24.20
2022-08-01T09:38:14.530Z,24.10
2022-08-01T09:39:25.502Z,24.10
2022-08-01T09:40:49.964Z,24.10
2022-08-01T09:41:54.914Z,24.30
2022-08-01T09:43:18.511Z,24.50
2022-08-01T09:44:54.872Z,24.70
2022-08-01T09:45:59.779Z,24.80
2022-08-01T09:47:09.625Z,25.00
2022-08-01T09:48:13.270Z,25.00
2022-08-01T09:49:16.669Z,24.70
2022-08-01T09:50:26.505Z,24.70
2022-08-01T09:51:59.157Z,24.70
2022-08-01T09:52:58.327Z,24.90
2022-08-01T09:54:01.840Z,25.00
2022-08-01T09:55:16.526Z,25.10
2022-08-01T09:56:18.918Z,25.10
2022-08-01T09:57:23.203Z,25.00
2022-08-01T09:58:25.496Z,25.00
2022-08-01T09:59:57.859Z,24.90
2022-08-01T10:01:10.671Z,24.80
2022-08-01T10:02:16.520Z,24.70
2022-08-01T10:03:25.732Z,24.70
2022-08-01T10:04:28.961Z,24.70
2022-08-01T10:05:32.783Z,24.70
2022-08-01T10:06:50.854Z,24.60
2022-08-01T10:08:15.474Z,24.40
2022-08-01T10:09:40.687Z,24.30
2022-08-01T10:11:05.449Z,24.30
2022-08-01T10:12:15.254Z,24.30
2022-08-01T10:13:25.483Z,24.40
2022-08-01T10:14:42.687Z,24.40
2022-08-01T10:15:50.305Z,24.50
2022-08-01T10:16:56.656Z,24.20
2022-08-01T10:18:16.340Z,24.30
2022-08-01T10:19:28.847Z,24.10
2022-08-01T10:20:34.849Z,24.30
2022-08-01T10:21:56.812Z,24.40
2022-08-01T10:23:06.023Z,24.60
2022-08-01T10:24:18.848Z,24.70
2022-08-01T10:25:42.560Z,24.50
2022-08-01T10:26:49.417Z,24.40
2022-08-01T10:27:56.059Z,24.30
2022-08-01T10:29:06.514Z,24.10
2022-08-01T10:30:37.717Z,24.00
2022-08-01T10:31:41.378Z,24.20
2022-08-01T10:32:54.807Z,24.40
2022-08-01T10:33:59.408Z,24.70
2022-08-01T10:35:15.201Z,24.80
2022-08-01T10:36:21.473Z,25.00
2022-08-01T10:37:27.245Z,25.20
2022-08-01T10:38:29.924Z,25.40
2022-08-01T10:39:34.641Z,25.60
2022-08-01T10:40:44.530Z,25.70
2022-08-01T10:41:49.020Z,25.70
2022-08-01T10:42:56.182Z,25.70
2022-08-01T10:43:59.750Z,25.70
2022-08-01T10:45:02.754Z,25.80
2022-08-01T10:46:16.563Z,25.90
2022-08-01T10:47:49.647Z,26.20
2022-08-01T10:48:59.138Z,26.20
2022-08-01T10:50:21.893Z,26.20
2022-08-01T10:51:51.962Z,26.40
2022-08-01T10:53:23.829Z,26.40
2022-08-01T10:54:52.428Z,26.40
2022-08-01T10:56:02.657Z,25.80
2022-08-01T10:57:14.551Z,25.70
2022-08-01T10:58:38.028Z,25.50
2022-08-01T11:00:01.907Z,25.30
2022-08-01T11:01:32.593Z,25.40
2022-08-01T11:02:41.715Z,25.30
2022-08-01T11:04:06.498Z,25.30
2022-08-01T11:05:14.601Z,25.30
2022-08-01T11:06:18.479Z,25.20
2022-08-01T11:07:27.379Z,25.20
2022-08-01T11:08:58.572Z,25.30
2022-08-01T11:10:15.662Z,25.40
2022-08-01T11:11:18.218Z,25.50
2022-08-01T11:12:24.448Z,25.20
2022-08-01T11:14:09.416Z,25.10
2022-08-01T11:15:30.218Z,25.10
2022-08-01T11:16:37.284Z,24.90
2022-08-01T11:17:45.228Z,25.00
2022-08-01T11:18:53.153Z,25.10
2022-08-01T11:20:16.720Z,25.30
2022-08-01T11:21:58.762Z,25.50
2022-08-01T11:23:28.542Z,25.70
2022-08-01T11:25:04.391Z,25.70
2022-08-01T11:26:18.767Z,25.80
2022-08-01T11:27:34.469Z,25.80
2022-08-01T11:28:40.604Z,25.80
2022-08-01T11:30:30.724Z,26.00
2022-08-01T11:31:42.515Z,25.80
2022-08-01T11:33:10.453Z,25.80
2022-08-01T11:34:11.933Z,25.70
2022-08-01T11:35:14.259Z,25.50
2022-08-01T11:36:55.832Z,25.40
2022-08-01T11:37:52.188Z,25.40
2022-08-01T11:39:18.322Z,25.20
2022-08-01T11:40:24.962Z,25.40
2022-08-01T11:41:39.443Z,25.40
2022-08-01T11:42:42.957Z,25.50
2022-08-01T11:43:57.957Z,25.60
2022-08-01T11:45:03.582Z,25.90
2022-08-01T11:46:05.861Z,26.10
2022-08-01T11:47:21.220Z,25.80
2022-08-01T11:48:27.868Z,25.60
2022-08-01T11:49:58.903Z,25.80
2022-08-01T11:51:01.940Z,25.90
2022-08-01T11:52:17.795Z,26.00
2022-08-01T11:53:22.060Z,26.20
2022-08-01T11:54:35.186Z,26.00
2022-08-01T11:55:39.524Z,25.90
2022-08-01T11:56:43.058Z,26.00
2022-08-01T11:57:57.532Z,26.20
2022-08-01T11:59:01.041Z,26.40
2022-08-01T12:00:15.045Z,26.10
2022-08-01T12:01:19.333Z,25.90
2022-08-01T12:02:30.594Z,25.90
2022-08-01T12:03:44.437Z,25.80
2022-08-01T12:04:55.253Z,25.70
2022-08-01T12:05:59.100Z,25.60
2022-08-01T12:07:13.490Z,25.50
2022-08-01T12:08:33.572Z,25.60
2022-08-01T12:09:36.097Z,25.80
2022-08-01T12:10:47.011Z,25.80
2022-08-01T12:11:54.222Z,25.70
2022-08-01T12:13:09.566Z,25.80
2022-08-01T12:14:17.870Z,25.70
2022-08-01T12:15:23.131Z,25.60
2022-08-01T12:16:27.665Z,25.60
2022-08-01T12:17:40.651Z,25.40
2022-08-01T12:18:56.552Z,25.40
2022-08-01T12:19:59.250Z,25.50
2022-08-01T12:21:06.220Z,25.70
2022-08-01T12:22:10.861Z,25.70
2022-08-01T12:23:22.550Z,25.80
2022-08-01T12:24:31.535Z,25.70
2022-08-01T12:25:35.411Z,25.70
2022-08-01T12:26:41.781Z,25.60
2022-08-01T12:27:46.989Z,25.50
2022-08-01T12:28:58.553Z,25.40
2022-08-01T12:30:02.208Z,25.40
2022-08-01T12:31:05.527Z,25.40
2022-08-01T12:32:30.825Z,25.60
2022-08-01T12:33:43.571Z,25.50
2022-08-01T12:34:48.371Z,25.70
2022-08-01T12:35:51.676Z,25.90
2022-08-01T12:36:54.149Z,25.60
2022-08-01T12:38:00.118Z,25.50
2022-08-01T12:39:10.536Z,25.50
2022-08-01T12:40:16.414Z,25.60
2022-08-01T12:41:19.261Z,25.50
2022-08-01T12:42:23.401Z,25.50
2022-08-01T12:43:33.769Z,25.70
2022-08-01T12:44:36.802Z,25.50
2022-08-01T12:45:57.076Z,25.50
2022-08-01T12:47:00.186Z,25.40
2022-08-01T12:48:04.315Z,25.50
2022-08-01T12:49:14.558Z,25.60
2022-08-01T12:50:21.167Z,25.90
2022-08-01T12:51:29.559Z,26.00
2022-08-01T12:52:33.949Z,26.20
2022-08-01T12:53:40.321Z,26.40
2022-08-01T12:55:04.781Z,26.60
2022-08-01T12:56:12.977Z,26.80
2022-08-01T12:57:30.559Z,26.90
2022-08-01T12:58:35.389Z,27.00
2022-08-01T12:59:37.713Z,27.00
2022-08-01T13:00:43.280Z,26.70
2022-08-01T13:01:45.568Z,26.60
2022-08-01T13:02:57.549Z,26.40
2022-08-01T13:04:01.955Z,26.30
2022-08-01T13:05:07.882Z,26.30
2022-08-01T13:06:13.719Z,26.50
2022-08-01T13:07:16.194Z,26.60
2022-08-01T13:08:27.573Z,26.70
2022-08-01T13:09:42.789Z,26.80
2022-08-01T13:10:46.129Z,27.00
2022-08-01T13:11:56.139Z,26.80
2022-08-01T13:13:22.163Z,26.60
2022-08-01T13:14:32.129Z,26.70
2022-08-01T13:15:41.685Z,26.80
2022-08-01T13:16:57.486Z,26.70
2022-08-01T13:18:10.669Z,26.60
2022-08-01T13:19:12.993Z,26.40
2022-08-01T13:20:26.691Z,26.10
2022-08-01T13:21:53.050Z,26.00
2022-08-01T13:22:54.991Z,25.90
2022-08-01T13:24:14.647Z,26.00
2022-08-01T13:25:22.571Z,25.90
2022-08-01T13:26:41.091Z,25.80
2022-08-01T13:27:53.840Z,25.70
2022-08-01T13:29:07.893Z,25.80
2022-08-01T13:30:22.612Z,26.00
2022-08-01T13:31:34.885Z,26.10
2022-08-01T13:32:37.412Z,26.00
2022-08-01T13:33:45.224Z,25.70
2022-08-01T13:35:10.607Z,25.40
2022-08-01T13:36:16.020Z,25.00
2022-08-01T13:37:21.095Z,24.80
2022-08-01T13:38:45.012Z,24.70
2022-08-01T13:39:48.471Z,24.60
2022-08-01T13:41:06.607Z,24.20
2022-08-01T13:42:10.724Z,24.00
2022-08-01T13:43:22.231Z,23.80
2022-08-01T13:44:24.529Z,23.80
2022-08-01T13:45:34.631Z,23.70
2022-08-01T13:46:37.650Z,23.60
2022-08-01T13:47:40.917Z,23.70
2022-08-01T13:49:16.092Z,23.60
2022-08-01T13:50:26.602Z,23.60
2022-08-01T13:51:31.309Z,23.70
2022-08-01T13:52:33.814Z,23.60
2022-08-01T13:53:37.344Z,23.60
2022-08-01T13:54:39.852Z,23.70
2022-08-01T13:55:49.604Z,23.80
2022-08-01T13:56:54.825Z,24.20
2022-08-01T13:58:07.642Z,24.70
2022-08-01T13:59:10.178Z,25.10
2022-08-01T14:00:14.605Z,25.20
2022-08-01T14:01:17.223Z,25.10
2022-08-01T14:02:26.670Z,25.20
2022-08-01T14:03:33.670Z,25.40
2022-08-01T14:04:36.230Z,25.80
2022-08-01T14:05:40.496Z,26.20
2022-08-01T14:06:44.151Z,26.70
2022-08-01T14:07:56.426Z,26.80
2022-08-01T14:09:18.087Z,26.80
2022-08-01T14:10:27.160Z,27.10
2022-08-01T14:11:30.584Z,27.40
2022-08-01T14:12:41.289Z,27.90
2022-08-01T14:13:55.655Z,28.80
2022-08-01T14:15:05.622Z,29.70
2022-08-01T14:16:09.007Z,30.50
2022-08-01T14:17:12.312Z,31.30
2022-08-01T14:18:20.654Z,31.80
2022-08-01T14:19:38.918Z,31.80
2022-08-01T14:20:43.959Z,31.20
2022-08-01T14:21:47.758Z,30.40
2022-08-01T14:22:51.273Z,30.40
2022-08-01T14:23:53.652Z,31.10
2022-08-01T14:25:03.779Z,31.80
2022-08-01T14:26:12.292Z,32.20
2022-08-01T14:27:15.920Z,32.60
2022-08-01T14:28:19.433Z,32.30
2022-08-01T14:30:02.230Z,31.50
2022-08-01T14:30:52.893Z,31.40
2022-08-01T14:31:58.520Z,30.50
2022-08-01T14:33:00.964Z,30.10
2022-08-01T14:34:10.680Z,29.60
2022-08-01T14:35:13.102Z,29.40
2022-08-01T14:36:30.998Z,28.80
2022-08-01T14:37:38.647Z,28.70
2022-08-01T14:38:41.446Z,28.60
2022-08-01T14:39:53.665Z,28.70
2022-08-01T14:40:58.140Z,28.80
2022-08-01T14:42:01.629Z,28.90
2022-08-01T14:43:05.173Z,29.20
2022-08-01T14:44:33.042Z,29.20
2022-08-01T14:45:37.018Z,29.70
2022-08-01T14:46:42.134Z,29.90
2022-08-01T14:48:01.640Z,30.30
2022-08-01T14:49:11.729Z,31.40